Time;durP1;ratioP1;P1;durP2;ratioP2;P2;SDS_P1;SDS_P2;PMS_P1;PMS_P2;Temp;Humidity;BMP_temperature;BMP_pressure;BME280_temperature;BME280_humidity;BME280_pressure;Samples;Min_cycle;Max_cycle;Signal;HPM_P1;HPM_P2
2021/07/05 00:00:45;;;;;;;22.53;21.43;;;;;;;;;;5053574;28;20447;-64
2021/07/05 00:03:12;;;;;;;23.47;22.27;;;;;;;;;;5052969;28;20474;-63
2021/07/05 00:05:39;;;;;;;22.87;21.77;;;;;;;;;;5053268;28;20947;-64
2021/07/05 00:08:06;;;;;;;23.60;22.40;;;;;;;;;;5057309;28;20448;-64
2021/07/05 00:10:33;;;;;;;22.43;21.33;;;;;;;;;;5053185;28;20535;-64
2021/07/05 00:13:01;;;;;;;23.20;22.00;;;;;;;;;;5063033;28;20547;-64
2021/07/05 00:15:29;;;;;;;22.70;21.40;;;;;;;;;;5053579;28;20443;-64
2021/07/05 00:18:00;;;;;;;23.30;22.20;;;;;;;;;;5053288;28;20447;-64
2021/07/05 00:20:28;;;;;;;23.33;22.13;;;;;;;;;;5058964;28;20450;-64
2021/07/05 00:22:55;;;;;;;24.07;22.87;;;;;;;;;;5073287;28;20454;-65
2021/07/05 00:25:23;;;;;;;23.90;22.60;;;;;;;;;;5071022;28;20462;-64
2021/07/05 00:27:50;;;;;;;24.10;22.70;;;;;;;;;;5053180;28;20955;-64
2021/07/05 00:30:18;;;;;;;24.30;22.90;;;;;;;;;;5055181;28;20462;-64
2021/07/05 00:32:46;;;;;;;24.23;22.83;;;;;;;;;;5071979;28;20486;-64
2021/07/05 00:35:15;;;;;;;24.00;22.80;;;;;;;;;;5053961;28;20453;-64
2021/07/05 00:37:42;;;;;;;24.50;23.10;;;;;;;;;;5052750;28;20458;-64
2021/07/05 00:40:09;;;;;;;24.40;22.90;;;;;;;;;;5053016;28;20949;-65
2021/07/05 00:42:37;;;;;;;24.03;22.70;;;;;;;;;;5072811;28;20447;-64
2021/07/05 00:45:05;;;;;;;24.00;22.60;;;;;;;;;;5072788;28;20463;-63
2021/07/05 00:47:32;;;;;;;23.73;22.50;;;;;;;;;;5052676;28;20474;-63
2021/07/05 00:50:00;;;;;;;24.40;22.90;;;;;;;;;;5052262;28;20452;-64
2021/07/05 00:52:28;;;;;;;24.30;23.10;;;;;;;;;;5052841;28;20488;-64
2021/07/05 00:54:55;;;;;;;23.37;22.17;;;;;;;;;;5052728;28;20470;-64
2021/07/05 00:57:24;;;;;;;23.77;22.47;;;;;;;;;;5052884;28;20452;-64
2021/07/05 00:59:52;;;;;;;24.00;22.70;;;;;;;;;;5052013;28;20458;-64
2021/07/05 01:02:19;;;;;;;22.30;21.20;;;;;;;;;;5052577;28;20454;-64
2021/07/05 01:04:47;;;;;;;23.30;22.10;;;;;;;;;;5052153;28;20472;-64
2021/07/05 01:07:14;;;;;;;24.00;22.80;;;;;;;;;;5059577;28;20470;-64
2021/07/05 01:09:43;;;;;;;23.07;21.87;;;;;;;;;;5052559;28;20517;-64
2021/07/05 01:12:11;;;;;;;24.50;23.30;;;;;;;;;;5051527;28;20483;-63
2021/07/05 01:14:38;;;;;;;24.40;23.10;;;;;;;;;;5071000;28;20483;-64
2021/07/05 01:17:10;;;;;;;25.50;23.90;;;;;;;;;;5071024;28;20455;-64
2021/07/05 01:19:37;;;;;;;23.67;22.53;;;;;;;;;;5052060;28;20448;-64
2021/07/05 01:22:06;;;;;;;23.70;22.50;;;;;;;;;;5063588;28;20449;-64
2021/07/05 01:24:33;;;;;;;24.17;22.53;;;;;;;;;;5071595;28;20506;-64
2021/07/05 01:27:00;;;;;;;24.20;22.90;;;;;;;;;;5061024;28;20448;-64
2021/07/05 01:29:28;;;;;;;24.40;23.10;;;;;;;;;;5051882;28;20478;-64
2021/07/05 01:31:56;;;;;;;24.80;23.50;;;;;;;;;;5060044;28;20478;-64
2021/07/05 01:34:23;;;;;;;24.10;22.90;;;;;;;;;;5052197;28;20472;-64
2021/07/05 01:36:50;;;;;;;24.80;23.40;;;;;;;;;;5051649;28;20984;-64
2021/07/05 01:39:19;;;;;;;23.80;22.60;;;;;;;;;;5052342;28;20505;-65
2021/07/05 01:41:46;;;;;;;24.23;22.93;;;;;;;;;;5042979;28;20543;-65
2021/07/05 01:44:14;;;;;;;23.70;22.50;;;;;;;;;;5051582;28;20468;-64
2021/07/05 01:46:41;;;;;;;24.40;23.20;;;;;;;;;;5056272;28;20457;-65
2021/07/05 01:49:10;;;;;;;24.47;23.17;;;;;;;;;;5071368;28;20453;-65
2021/07/05 01:51:37;;;;;;;24.53;23.33;;;;;;;;;;5054589;28;20479;-65
2021/07/05 01:54:04;;;;;;;24.23;23.03;;;;;;;;;;5054184;28;20467;-64
2021/07/05 01:56:33;;;;;;;26.87;25.07;;;;;;;;;;5052172;28;20466;-64
2021/07/05 01:59:00;;;;;;;24.97;23.67;;;;;;;;;;5071449;28;20542;-63
2021/07/05 02:01:29;;;;;;;25.60;24.07;;;;;;;;;;5057032;28;20447;-63
2021/07/05 02:03:56;;;;;;;25.20;23.80;;;;;;;;;;5051449;28;21008;-63
2021/07/05 02:06:24;;;;;;;25.00;23.50;;;;;;;;;;5051457;28;20454;-64
2021/07/05 02:08:51;;;;;;;24.80;23.50;;;;;;;;;;5067816;28;20456;-64
2021/07/05 02:11:18;;;;;;;25.30;23.80;;;;;;;;;;5051316;28;20483;-64
2021/07/05 02:13:46;;;;;;;24.97;23.63;;;;;;;;;;5057970;28;20472;-65
2021/07/05 02:16:14;;;;;;;25.70;24.17;;;;;;;;;;5051295;28;20451;-64
2021/07/05 02:18:41;;;;;;;25.23;23.93;;;;;;;;;;5051325;28;20462;-63
2021/07/05 02:21:08;;;;;;;25.50;24.13;;;;;;;;;;5052211;28;20447;-64
2021/07/05 02:23:36;;;;;;;25.63;24.10;;;;;;;;;;5047124;28;20497;-64
2021/07/05 02:26:05;;;;;;;25.73;24.43;;;;;;;;;;5051417;28;20462;-65
2021/07/05 02:28:34;;;;;;;25.70;24.30;;;;;;;;;;5051656;28;20454;-64
2021/07/05 02:31:05;;;;;;;25.87;24.57;;;;;;;;;;5050924;28;20479;-63
2021/07/05 02:33:32;;;;;;;26.50;24.90;;;;;;;;;;5071095;28;20851;-63
2021/07/05 02:36:00;;;;;;;26.17;24.77;;;;;;;;;;5071067;28;20994;-64
2021/07/05 02:38:27;;;;;;;27.37;25.87;;;;;;;;;;5052448;28;20447;-64
2021/07/05 02:40:56;;;;;;;26.20;24.80;;;;;;;;;;5043037;28;20470;-64
2021/07/05 02:43:23;;;;;;;27.10;25.50;;;;;;;;;;5049200;28;20467;-63
2021/07/05 02:45:52;;;;;;;27.03;25.53;;;;;;;;;;5051239;28;20447;-64
2021/07/05 02:48:22;;;;;;;26.47;24.67;;;;;;;;;;5051470;28;20458;-63
2021/07/05 02:50:51;;;;;;;26.00;24.60;;;;;;;;;;5050148;28;20452;-64
2021/07/05 02:53:18;;;;;;;26.70;25.10;;;;;;;;;;5050711;28;20498;-64
2021/07/05 02:55:45;;;;;;;26.30;24.90;;;;;;;;;;5051125;28;20965;-64
2021/07/05 02:58:13;;;;;;;26.80;25.20;;;;;;;;;;5054914;28;20969;-63
2021/07/05 03:00:41;;;;;;;26.00;24.50;;;;;;;;;;5032926;28;20811;-63
2021/07/05 03:03:08;;;;;;;27.20;25.53;;;;;;;;;;5031279;28;20465;-64
2021/07/05 03:05:37;;;;;;;25.67;24.20;;;;;;;;;;5054387;28;20451;-63
2021/07/05 03:08:04;;;;;;;26.80;25.20;;;;;;;;;;5070712;28;21177;-63
2021/07/05 03:10:34;;;;;;;25.87;24.37;;;;;;;;;;5070495;28;20451;-64
2021/07/05 03:13:01;;;;;;;25.93;24.37;;;;;;;;;;5069744;28;20475;-63
2021/07/05 03:15:29;;;;;;;26.33;24.80;;;;;;;;;;5071313;28;20819;-63
2021/07/05 03:17:56;;;;;;;26.63;24.80;;;;;;;;;;5070060;28;20447;-63
2021/07/05 03:20:24;;;;;;;25.80;24.40;;;;;;;;;;5070474;28;20450;-63
2021/07/05 03:22:53;;;;;;;25.33;23.77;;;;;;;;;;5069750;28;20453;-64
2021/07/05 03:25:21;;;;;;;26.43;24.83;;;;;;;;;;5081369;22;20490;-69
2021/07/05 03:27:49;;;;;;;25.43;23.77;;;;;;;;;;5071666;28;20443;-70
2021/07/05 03:30:17;;;;;;;26.37;24.80;;;;;;;;;;5068510;28;20453;-68
2021/07/05 03:32:45;;;;;;;25.20;23.70;;;;;;;;;;5075306;28;20483;-68
2021/07/05 03:35:12;;;;;;;25.50;24.10;;;;;;;;;;5054968;28;20467;-68
2021/07/05 03:37:40;;;;;;;26.93;25.13;;;;;;;;;;5054942;28;20931;-68
2021/07/05 03:40:10;;;;;;;26.30;24.87;;;;;;;;;;5057725;28;20450;-68
2021/07/05 03:42:37;;;;;;;27.27;25.77;;;;;;;;;;5074422;28;20443;-69
2021/07/05 03:45:05;;;;;;;27.80;26.13;;;;;;;;;;5057022;28;20472;-68
2021/07/05 03:47:32;;;;;;;27.33;25.73;;;;;;;;;;5055016;28;20493;-69
2021/07/05 03:49:59;;;;;;;27.33;25.43;;;;;;;;;;5055989;28;20466;-69
2021/07/05 03:52:26;;;;;;;27.33;25.83;;;;;;;;;;5054831;28;20476;-69
2021/07/05 03:54:53;;;;;;;28.03;26.33;;;;;;;;;;5055999;28;20472;-69
2021/07/05 03:57:26;;;;;;;28.40;26.50;;;;;;;;;;5065172;28;20451;-69
2021/07/05 03:59:53;;;;;;;28.03;26.43;;;;;;;;;;5057971;28;20459;-69
2021/07/05 04:02:21;;;;;;;28.60;26.80;;;;;;;;;;5057626;28;20440;-69
2021/07/05 04:04:48;;;;;;;28.30;26.70;;;;;;;;;;5074996;28;20465;-69
2021/07/05 04:07:16;;;;;;;28.03;26.40;;;;;;;;;;5070303;28;20452;-70
2021/07/05 04:09:43;;;;;;;30.10;28.30;;;;;;;;;;5054944;28;21004;-71
2021/07/05 04:12:12;;;;;;;29.30;27.50;;;;;;;;;;5054270;28;20483;-69
2021/07/05 04:14:41;;;;;;;28.90;27.10;;;;;;;;;;5057603;28;20486;-69
2021/07/05 04:17:08;;;;;;;28.33;26.60;;;;;;;;;;5057612;28;20957;-69
2021/07/05 04:19:36;;;;;;;28.77;27.00;;;;;;;;;;5075005;28;20442;-69
2021/07/05 04:22:04;;;;;;;29.73;27.90;;;;;;;;;;5073473;28;20453;-69
2021/07/05 04:24:31;;;;;;;30.53;28.63;;;;;;;;;;5060494;28;20448;-69
2021/07/05 04:26:58;;;;;;;28.03;26.43;;;;;;;;;;5055629;28;20801;-69
2021/07/05 04:29:25;;;;;;;28.47;26.50;;;;;;;;;;5061018;28;20665;-69
2021/07/05 04:31:54;;;;;;;29.30;27.70;;;;;;;;;;5061518;28;20835;-69
2021/07/05 04:34:21;;;;;;;31.20;29.30;;;;;;;;;;5054225;28;20603;-69
2021/07/05 04:36:48;;;;;;;30.27;28.10;;;;;;;;;;5054564;28;20452;-70
2021/07/05 04:39:15;;;;;;;29.20;27.50;;;;;;;;;;5054060;28;20448;-69
2021/07/05 04:41:42;;;;;;;31.63;29.63;;;;;;;;;;5068302;28;20481;-70
2021/07/05 04:44:12;;;;;;;30.77;28.90;;;;;;;;;;5058299;28;20458;-69
2021/07/05 04:46:45;;;;;;;31.47;29.20;;;;;;;;;;5053863;28;20455;-69
2021/07/05 04:49:14;;;;;;;32.80;30.07;;;;;;;;;;5055658;28;20521;-69
2021/07/05 04:51:41;;;;;;;31.47;29.33;;;;;;;;;;5054319;28;20822;-70
2021/07/05 04:54:08;;;;;;;30.63;28.43;;;;;;;;;;5053532;28;20479;-69
2021/07/05 04:56:35;;;;;;;32.23;30.30;;;;;;;;;;5054351;28;20555;-69
2021/07/05 04:59:03;;;;;;;31.00;28.80;;;;;;;;;;5068614;28;20451;-69
2021/07/05 05:01:30;;;;;;;30.97;28.80;;;;;;;;;;5068776;28;20452;-68
2021/07/05 05:03:57;;;;;;;31.23;28.97;;;;;;;;;;5054656;28;20542;-69
2021/07/05 05:06:25;;;;;;;32.67;30.67;;;;;;;;;;5070533;28;20471;-69
2021/07/05 05:08:53;;;;;;;30.67;28.50;;;;;;;;;;5073022;28;20455;-68
2021/07/05 05:11:20;;;;;;;30.20;28.00;;;;;;;;;;5067359;28;20974;-68
2021/07/05 05:13:48;;;;;;;30.10;28.30;;;;;;;;;;5064047;28;20489;-69
2021/07/05 05:16:16;;;;;;;29.47;27.77;;;;;;;;;;5072109;28;20466;-69
2021/07/05 05:18:43;;;;;;;29.90;28.10;;;;;;;;;;5072935;28;20439;-70
2021/07/05 05:21:11;;;;;;;28.70;27.10;;;;;;;;;;5065764;28;20450;-68
2021/07/05 05:23:39;;;;;;;29.30;27.70;;;;;;;;;;5062696;28;20450;-68
2021/07/05 05:26:07;;;;;;;29.70;27.70;;;;;;;;;;5072450;28;20478;-68
2021/07/05 05:28:34;;;;;;;29.73;28.03;;;;;;;;;;5073718;28;20447;-69
2021/07/05 05:31:02;;;;;;;28.37;26.77;;;;;;;;;;5068868;28;21034;-68
2021/07/05 05:33:29;;;;;;;40.10;38.00;;;;;;;;;;5052831;28;20491;-68
2021/07/05 05:35:56;;;;;;;28.00;26.40;;;;;;;;;;5072941;28;20477;-68
2021/07/05 05:38:23;;;;;;;28.60;26.90;;;;;;;;;;5073808;28;20457;-67
2021/07/05 05:40:52;;;;;;;28.20;26.50;;;;;;;;;;5067075;28;20942;-69
2021/07/05 05:43:19;;;;;;;27.13;25.40;;;;;;;;;;5057162;28;20542;-68
2021/07/05 05:45:46;;;;;;;28.60;26.77;;;;;;;;;;5072020;28;21067;-68
2021/07/05 05:48:13;;;;;;;29.20;27.13;;;;;;;;;;5056876;28;20452;-68
2021/07/05 05:50:40;;;;;;;31.00;28.90;;;;;;;;;;5057904;28;20447;-69
2021/07/05 05:53:08;;;;;;;31.10;29.20;;;;;;;;;;5052404;28;20486;-68
2021/07/05 05:55:35;;;;;;;33.67;31.07;;;;;;;;;;5061214;28;20989;-68
2021/07/05 05:58:03;;;;;;;34.00;31.47;;;;;;;;;;5073248;28;20438;-68
2021/07/05 06:00:30;;;;;;;31.60;29.43;;;;;;;;;;5069019;28;20958;-68
2021/07/05 06:02:57;;;;;;;31.00;29.17;;;;;;;;;;5073047;28;20455;-68
2021/07/05 06:05:24;;;;;;;32.83;30.93;;;;;;;;;;5071630;28;20475;-67
2021/07/05 06:07:52;;;;;;;35.27;32.80;;;;;;;;;;5063401;28;20459;-65
2021/07/05 06:10:20;;;;;;;36.90;34.70;;;;;;;;;;5062590;28;20458;-68
2021/07/05 06:12:48;;;;;;;37.23;34.73;;;;;;;;;;5052392;28;21115;-67
2021/07/05 06:15:17;;;;;;;35.87;33.57;;;;;;;;;;5063181;28;20474;-68
2021/07/05 06:17:44;;;;;;;34.73;32.53;;;;;;;;;;5071121;28;20538;-68
2021/07/05 06:20:11;;;;;;;33.97;31.87;;;;;;;;;;5073401;28;20446;-68
2021/07/05 06:22:46;;;;;;;33.63;31.53;;;;;;;;;;5072587;28;20457;-68
2021/07/05 06:25:14;;;;;;;34.70;32.70;;;;;;;;;;5052557;28;20485;-68
2021/07/05 06:27:41;;;;;;;32.77;30.77;;;;;;;;;;5051934;28;20451;-70
2021/07/05 06:30:09;;;;;;;35.90;33.57;;;;;;;;;;5072366;28;20451;-68
2021/07/05 06:32:38;;;;;;;34.13;31.87;;;;;;;;;;5072663;28;20941;-68
2021/07/05 06:35:05;;;;;;;34.37;32.37;;;;;;;;;;5072219;28;20467;-68
2021/07/05 06:37:33;;;;;;;37.50;35.20;;;;;;;;;;5072998;28;20458;-68
2021/07/05 06:40:00;;;;;;;36.83;34.73;;;;;;;;;;5072016;28;20473;-68
2021/07/05 06:42:27;;;;;;;35.33;33.13;;;;;;;;;;5073359;28;20981;-68
2021/07/05 06:44:54;;;;;;;38.50;36.27;;;;;;;;;;5066167;28;20477;-68
2021/07/05 06:47:21;;;;;;;34.70;32.70;;;;;;;;;;5072779;28;20549;-68
2021/07/05 06:49:49;;;;;;;37.23;34.73;;;;;;;;;;5071925;28;20451;-68
2021/07/05 06:52:17;;;;;;;35.77;33.77;;;;;;;;;;5072253;28;20451;-68
2021/07/05 06:54:44;;;;;;;34.07;32.00;;;;;;;;;;5062648;28;20566;-69
2021/07/05 06:57:29;;;;;;;32.53;30.73;;;;;;;;;;5070429;28;20446;-68
2021/07/05 06:59:56;;;;;;;34.13;32.23;;;;;;;;;;5061873;28;20480;-70
2021/07/05 07:02:23;;;;;;;35.10;33.00;;;;;;;;;;5065777;28;20533;-68
2021/07/05 07:04:51;;;;;;;35.47;33.47;;;;;;;;;;5076475;28;20825;-69
2021/07/05 07:07:19;;;;;;;39.47;37.10;;;;;;;;;;5068772;28;20947;-68
2021/07/05 07:09:46;;;;;;;37.90;35.63;;;;;;;;;;5057519;28;20448;-68
2021/07/05 07:12:13;;;;;;;35.30;33.40;;;;;;;;;;5056581;28;20451;-68
2021/07/05 07:14:40;;;;;;;34.70;32.60;;;;;;;;;;5073169;28;20486;-70
2021/07/05 07:17:09;;;;;;;32.20;30.40;;;;;;;;;;5073015;28;20544;-68
2021/07/05 07:19:37;;;;;;;32.00;30.10;;;;;;;;;;5076331;28;20450;-69
2021/07/05 07:22:05;;;;;;;32.60;30.70;;;;;;;;;;5074745;28;20538;-68
2021/07/05 07:24:33;;;;;;;33.80;31.70;;;;;;;;;;5075474;28;20434;-69
2021/07/05 07:27:00;;;;;;;34.30;32.40;;;;;;;;;;5075045;28;20439;-69
2021/07/05 07:29:27;;;;;;;34.53;32.50;;;;;;;;;;5066646;28;20815;-68
2021/07/05 07:31:55;;;;;;;32.03;30.13;;;;;;;;;;5062375;28;20941;-68
2021/07/05 07:34:22;;;;;;;34.50;32.40;;;;;;;;;;5075383;28;20486;-68
2021/07/05 07:36:49;;;;;;;31.13;29.33;;;;;;;;;;5074998;28;20953;-68
2021/07/05 07:39:22;;;;;;;28.87;27.07;;;;;;;;;;5076102;28;20450;-68
2021/07/05 07:41:49;;;;;;;33.27;31.27;;;;;;;;;;5074731;28;20452;-68
2021/07/05 07:44:17;;;;;;;28.53;27.03;;;;;;;;;;5067380;28;20456;-70
2021/07/05 07:46:44;;;;;;;29.50;27.90;;;;;;;;;;5056180;28;20456;-68
2021/07/05 07:49:11;;;;;;;30.37;28.70;;;;;;;;;;5057155;28;20462;-69
2021/07/05 07:51:38;;;;;;;29.60;28.00;;;;;;;;;;5059596;28;20950;-68
2021/07/05 07:54:05;;;;;;;29.53;27.90;;;;;;;;;;5077780;28;20493;-68
2021/07/05 07:56:35;;;;;;;29.63;27.93;;;;;;;;;;5075400;28;20471;-68
2021/07/05 07:59:02;;;;;;;30.07;28.37;;;;;;;;;;5068639;28;20459;-68
2021/07/05 08:01:29;;;;;;;27.97;26.37;;;;;;;;;;5055651;28;20447;-68
2021/07/05 08:03:56;;;;;;;29.30;27.70;;;;;;;;;;5075682;28;20447;-69
2021/07/05 08:06:23;;;;;;;29.87;28.17;;;;;;;;;;5075647;28;20557;-70
2021/07/05 08:08:52;;;;;;;28.87;27.13;;;;;;;;;;5057293;28;20839;-67
2021/07/05 08:11:19;;;;;;;31.30;29.60;;;;;;;;;;5055227;28;20464;-68
2021/07/05 08:13:47;;;;;;;27.13;25.73;;;;;;;;;;5062046;28;20483;-68
2021/07/05 08:16:15;;;;;;;27.17;25.67;;;;;;;;;;5075015;28;20467;-68
2021/07/05 08:18:42;;;;;;;28.63;27.03;;;;;;;;;;5058936;28;20454;-69
2021/07/05 08:21:09;;;;;;;26.93;25.53;;;;;;;;;;5054985;28;21035;-68
2021/07/05 08:23:36;;;;;;;27.87;26.37;;;;;;;;;;5055162;28;20448;-68
2021/07/05 08:26:04;;;;;;;26.90;25.40;;;;;;;;;;5055327;28;21020;-70
2021/07/05 08:28:31;;;;;;;30.20;28.43;;;;;;;;;;5059964;28;20513;-68
2021/07/05 08:31:01;;;;;;;27.60;26.10;;;;;;;;;;5074488;28;20449;-68
2021/07/05 08:33:30;;;;;;;26.10;24.70;;;;;;;;;;5073311;28;20486;-68
2021/07/05 08:35:57;;;;;;;26.70;25.30;;;;;;;;;;5074106;28;20516;-68
2021/07/05 08:38:25;;;;;;;25.77;24.37;;;;;;;;;;5062219;28;20487;-68
2021/07/05 08:40:52;;;;;;;25.40;23.90;;;;;;;;;;5053707;28;20462;-70
2021/07/05 08:43:24;;;;;;;25.00;23.60;;;;;;;;;;5058184;28;20462;-68
2021/07/05 08:45:53;;;;;;;24.30;22.93;;;;;;;;;;5053826;28;20966;-68
2021/07/05 08:48:22;;;;;;;27.13;25.63;;;;;;;;;;5055267;28;20969;-68
2021/07/05 08:50:50;;;;;;;27.50;26.00;;;;;;;;;;5054195;28;20447;-68
2021/07/05 08:53:17;;;;;;;25.63;24.23;;;;;;;;;;5063461;28;20498;-68
2021/07/05 08:55:44;;;;;;;24.20;23.00;;;;;;;;;;5072999;28;20479;-68
2021/07/05 08:58:11;;;;;;;25.77;24.40;;;;;;;;;;5071131;28;20447;-68
2021/07/05 09:00:39;;;;;;;23.80;22.60;;;;;;;;;;5074204;28;20457;-69
2021/07/05 09:03:07;;;;;;;24.03;22.77;;;;;;;;;;5066471;28;20452;-70
2021/07/05 09:05:35;;;;;;;24.57;23.37;;;;;;;;;;5054497;28;20471;-68
2021/07/05 09:08:04;;;;;;;25.40;24.00;;;;;;;;;;5054460;28;20450;-68
2021/07/05 09:10:40;;;;;;;24.07;22.87;;;;;;;;;;5053239;28;20447;-68
2021/07/05 09:13:09;;;;;;;25.37;23.97;;;;;;;;;;5053015;28;20451;-68
2021/07/05 09:15:37;;;;;;;24.53;23.23;;;;;;;;;;5053384;28;20471;-68
2021/07/05 09:18:04;;;;;;;24.67;23.37;;;;;;;;;;5053686;28;20443;-69
2021/07/05 09:20:33;;;;;;;25.60;24.20;;;;;;;;;;5052686;28;20450;-69
2021/07/05 09:23:11;;;;;;;25.93;24.53;;;;;;;;;;5055723;28;20450;-68
2021/07/05 09:25:39;;;;;;;25.30;23.90;;;;;;;;;;5099398;22;20459;-65
2021/07/05 09:28:06;;;;;;;23.83;22.53;;;;;;;;;;5047719;28;20542;-64
2021/07/05 09:30:38;;;;;;;24.50;23.20;;;;;;;;;;5051549;28;20456;-64
2021/07/05 09:33:15;;;;;;;23.20;22.00;;;;;;;;;;5042226;28;20484;-65
2021/07/05 09:35:42;;;;;;;23.93;22.70;;;;;;;;;;5042874;28;20522;-64
2021/07/05 09:38:11;;;;;;;24.27;22.97;;;;;;;;;;5052057;28;20454;-65
2021/07/05 09:40:38;;;;;;;25.00;23.70;;;;;;;;;;5060902;28;20435;-64
2021/07/05 09:43:20;;;;;;;24.63;23.43;;;;;;;;;;5052086;28;20472;-64
2021/07/05 09:45:47;;;;;;;23.97;22.77;;;;;;;;;;5052393;28;20459;-64
2021/07/05 09:48:16;;;;;;;23.10;21.80;;;;;;;;;;5051809;28;20912;-65
2021/07/05 09:50:43;;;;;;;24.20;22.90;;;;;;;;;;5051645;28;20456;-64
2021/07/05 09:53:28;;;;;;;26.10;24.60;;;;;;;;;;5052093;28;20458;-64
2021/07/05 09:55:57;;;;;;;24.20;23.00;;;;;;;;;;5060910;28;20501;-64
2021/07/05 09:58:33;;;;;;;23.43;22.13;;;;;;;;;;5051732;28;20955;-66
2021/07/05 10:01:00;;;;;;;23.17;21.97;;;;;;;;;;5053504;28;20451;-65
2021/07/05 10:03:34;;;;;;;24.10;22.80;;;;;;;;;;5051441;28;20444;-64
2021/07/05 10:06:15;;;;;;;22.33;21.23;;;;;;;;;;5053093;28;20463;-64
2021/07/05 10:08:44;;;;;;;24.00;22.80;;;;;;;;;;5068353;28;20461;-64
2021/07/05 10:11:11;;;;;;;23.40;22.20;;;;;;;;;;5071524;28;20465;-64
2021/07/05 10:13:39;;;;;;;23.67;22.40;;;;;;;;;;5055973;28;20538;-65
2021/07/05 10:16:07;;;;;;;22.10;21.00;;;;;;;;;;5051647;28;20479;-64
2021/07/05 10:18:35;;;;;;;23.40;22.10;;;;;;;;;;5049085;28;20459;-65
2021/07/05 10:21:03;;;;;;;22.90;21.60;;;;;;;;;;5059745;28;20458;-63
2021/07/05 10:23:30;;;;;;;23.70;22.20;;;;;;;;;;5052177;28;20462;-65
2021/07/05 10:25:59;;;;;;;23.57;22.10;;;;;;;;;;5050611;28;20486;-66
2021/07/05 10:28:26;;;;;;;24.73;23.33;;;;;;;;;;5044317;28;20449;-66
2021/07/05 10:30:53;;;;;;;24.77;23.47;;;;;;;;;;5030989;28;20459;-66
2021/07/05 10:33:21;;;;;;;24.70;23.10;;;;;;;;;;5036628;28;20466;-66
2021/07/05 10:35:49;;;;;;;23.90;22.60;;;;;;;;;;5049945;28;20487;-65
2021/07/05 10:38:19;;;;;;;25.50;24.10;;;;;;;;;;5056326;28;20446;-65
2021/07/05 10:40:47;;;;;;;25.23;23.93;;;;;;;;;;5072207;28;20451;-65
2021/07/05 10:43:17;;;;;;;25.33;23.83;;;;;;;;;;5074797;28;20450;-65
2021/07/05 10:45:45;;;;;;;25.17;23.87;;;;;;;;;;5075509;28;20477;-65
2021/07/05 10:48:13;;;;;;;26.90;25.20;;;;;;;;;;5072421;28;21059;-65
2021/07/05 10:50:58;;;;;;;26.37;24.87;;;;;;;;;;5054860;28;20630;-65
2021/07/05 10:53:44;;;;;;;25.93;24.63;;;;;;;;;;5058157;28;20443;-64
2021/07/05 10:56:31;;;;;;;27.03;25.37;;;;;;;;;;5045598;28;20507;-64
2021/07/05 10:59:20;;;;;;;26.87;25.47;;;;;;;;;;5055140;28;20538;-65
2021/07/05 11:01:49;;;;;;;25.70;24.30;;;;;;;;;;5064537;28;20465;-64
2021/07/05 11:04:19;;;;;;;26.43;24.93;;;;;;;;;;5070579;28;20440;-64
2021/07/05 11:06:47;;;;;;;26.90;25.27;;;;;;;;;;5063476;28;21029;-65
2021/07/05 11:09:18;;;;;;;25.77;24.50;;;;;;;;;;5062794;28;20488;-65
2021/07/05 11:11:50;;;;;;;26.73;25.33;;;;;;;;;;5054748;28;20452;-65
2021/07/05 11:14:23;;;;;;;26.40;25.03;;;;;;;;;;5054457;28;21093;-65
2021/07/05 11:17:06;;;;;;;25.37;24.07;;;;;;;;;;5055314;28;20471;-65
2021/07/05 11:19:43;;;;;;;26.30;25.10;;;;;;;;;;5053098;28;20451;-64
2021/07/05 11:22:12;;;;;;;25.90;24.60;;;;;;;;;;5054259;28;21009;-65
2021/07/05 11:24:41;;;;;;;25.93;24.63;;;;;;;;;;5054549;28;20526;-65
2021/07/05 11:27:31;;;;;;;26.30;25.00;;;;;;;;;;5064041;28;20475;-64
2021/07/05 11:30:11;;;;;;;26.20;24.83;;;;;;;;;;5074368;28;20435;-65
2021/07/05 11:32:40;;;;;;;25.80;24.50;;;;;;;;;;5064101;28;21064;-65
2021/07/05 11:35:27;;;;;;;25.97;24.67;;;;;;;;;;5054338;28;20479;-65
2021/07/05 11:37:55;;;;;;;22.30;21.20;;;;;;;;;;5069719;28;20823;-65
2021/07/05 11:40:40;;;;;;;21.43;20.33;;;;;;;;;;5067463;28;20448;-64
2021/07/05 11:43:08;;;;;;;23.70;22.50;;;;;;;;;;5059165;28;20454;-65
2021/07/05 11:45:43;;;;;;;22.13;21.03;;;;;;;;;;5054016;28;20466;-64
2021/07/05 11:48:12;;;;;;;22.77;21.53;;;;;;;;;;5054158;28;20448;-67
2021/07/05 11:50:40;;;;;;;26.03;24.73;;;;;;;;;;5055554;28;20550;-65
2021/07/05 11:53:08;;;;;;;25.30;24.00;;;;;;;;;;5041919;28;20526;-65
2021/07/05 11:55:36;;;;;;;25.07;23.70;;;;;;;;;;5050231;28;20529;-64
2021/07/05 11:58:05;;;;;;;25.20;23.43;;;;;;;;;;5041244;28;20467;-65
2021/07/05 12:00:33;;;;;;;25.03;23.63;;;;;;;;;;5049585;28;20494;-64
2021/07/05 12:03:03;;;;;;;24.50;23.30;;;;;;;;;;5052875;28;20453;-64
2021/07/05 12:05:30;;;;;;;24.93;23.53;;;;;;;;;;5033673;28;20448;-65
2021/07/05 12:08:04;;;;;;;24.03;22.83;;;;;;;;;;5049936;28;20444;-64
2021/07/05 12:10:32;;;;;;;24.80;23.50;;;;;;;;;;5053611;28;20463;-64
2021/07/05 12:13:13;;;;;;;23.27;22.07;;;;;;;;;;5056702;28;20454;-64
2021/07/05 12:15:40;;;;;;;23.53;22.13;;;;;;;;;;5055903;28;20539;-65
2021/07/05 12:18:09;;;;;;;23.73;22.53;;;;;;;;;;5073344;28;20449;-64
2021/07/05 12:20:36;;;;;;;23.40;22.20;;;;;;;;;;5071064;28;20452;-64
2021/07/05 12:23:10;;;;;;;24.87;23.60;;;;;;;;;;5049787;28;20451;-64
2021/07/05 12:25:37;;;;;;;23.23;22.03;;;;;;;;;;5072716;28;20457;-65
2021/07/05 12:28:14;;;;;;;24.97;23.77;;;;;;;;;;5067424;28;20456;-64
2021/07/05 12:30:46;;;;;;;23.17;22.00;;;;;;;;;;5042283;28;20467;-64
2021/07/05 12:33:14;;;;;;;21.87;20.67;;;;;;;;;;5036142;28;20457;-65
2021/07/05 12:35:41;;;;;;;23.40;22.20;;;;;;;;;;5043078;28;20488;-64
2021/07/05 12:38:12;;;;;;;21.70;20.60;;;;;;;;;;5044012;28;20455;-64
2021/07/05 12:40:40;;;;;;;23.03;21.73;;;;;;;;;;5052239;28;20470;-64
2021/07/05 12:43:08;;;;;;;22.23;21.03;;;;;;;;;;5039410;28;20448;-64
2021/07/05 12:45:36;;;;;;;22.10;21.00;;;;;;;;;;5034880;28;21231;-65
2021/07/05 12:48:11;;;;;;;21.17;20.17;;;;;;;;;;5043349;28;20509;-64
2021/07/05 12:50:41;;;;;;;21.53;20.53;;;;;;;;;;5040246;28;20455;-64
2021/07/05 12:53:10;;;;;;;21.90;20.80;;;;;;;;;;5032843;28;20943;-64
2021/07/05 12:55:38;;;;;;;22.77;21.57;;;;;;;;;;5044119;28;20488;-64
2021/07/05 12:58:06;;;;;;;22.20;21.10;;;;;;;;;;5051627;28;20452;-64
2021/07/05 13:00:34;;;;;;;23.57;22.17;;;;;;;;;;5051183;28;20531;-66
2021/07/05 13:03:11;;;;;;;23.30;21.90;;;;;;;;;;5052107;28;20456;-66
2021/07/05 13:05:40;;;;;;;23.17;21.67;;;;;;;;;;5052821;28;20423;-66
2021/07/05 13:08:07;;;;;;;23.23;21.77;;;;;;;;;;5040856;28;20455;-65
2021/07/05 13:10:36;;;;;;;22.67;21.50;;;;;;;;;;5047220;28;20456;-65
2021/07/05 13:13:05;;;;;;;22.10;20.93;;;;;;;;;;5054970;28;20946;-65
2021/07/05 13:15:34;;;;;;;22.43;21.20;;;;;;;;;;5053581;28;20586;-65
2021/07/05 13:18:18;;;;;;;22.03;20.80;;;;;;;;;;5052904;28;20456;-66
2021/07/05 13:20:48;;;;;;;22.90;21.60;;;;;;;;;;5052351;28;20479;-66
2021/07/05 13:23:15;;;;;;;22.80;21.50;;;;;;;;;;5063106;28;20451;-66
2021/07/05 13:25:49;;;;;;;22.87;21.67;;;;;;;;;;5055504;28;20468;-66
2021/07/05 13:28:18;;;;;;;22.23;21.13;;;;;;;;;;5062695;28;20450;-65
2021/07/05 13:30:46;;;;;;;22.30;21.17;;;;;;;;;;5071875;28;20453;-66
2021/07/05 13:33:13;;;;;;;22.50;21.40;;;;;;;;;;5068135;28;20443;-66
2021/07/05 13:35:41;;;;;;;23.50;22.30;;;;;;;;;;5071827;28;22192;-66
2021/07/05 13:38:18;;;;;;;24.70;23.40;;;;;;;;;;5071187;28;20923;-66
2021/07/05 13:40:50;;;;;;;23.03;21.90;;;;;;;;;;5071715;28;20457;-65
2021/07/05 13:43:19;;;;;;;23.47;22.30;;;;;;;;;;5061902;28;20935;-66
2021/07/05 13:45:47;;;;;;;22.87;21.57;;;;;;;;;;5051609;28;20478;-65
2021/07/05 13:48:14;;;;;;;22.23;20.83;;;;;;;;;;5060031;28;20537;-65
2021/07/05 13:50:42;;;;;;;25.27;23.97;;;;;;;;;;5071714;28;20453;-65
2021/07/05 13:53:20;;;;;;;25.40;24.10;;;;;;;;;;5071073;28;20455;-66
2021/07/05 13:55:51;;;;;;;21.40;20.30;;;;;;;;;;5071277;28;20544;-66
2021/07/05 13:58:19;;;;;;;21.43;20.33;;;;;;;;;;5050210;28;20811;-66
2021/07/05 14:00:47;;;;;;;21.90;20.70;;;;;;;;;;5047499;28;20471;-66
2021/07/05 14:03:17;;;;;;;21.33;20.33;;;;;;;;;;5050420;28;20446;-67
2021/07/05 14:05:44;;;;;;;21.10;20.10;;;;;;;;;;5051490;28;20487;-66
2021/07/05 14:08:12;;;;;;;20.83;19.83;;;;;;;;;;5050776;28;20827;-66
2021/07/05 14:10:42;;;;;;;20.80;19.60;;;;;;;;;;5051784;28;20822;-66
2021/07/05 14:13:10;;;;;;;20.90;19.70;;;;;;;;;;5044976;28;20471;-66
2021/07/05 14:15:37;;;;;;;20.60;19.50;;;;;;;;;;5047829;28;20487;-67
2021/07/05 14:18:05;;;;;;;20.77;19.33;;;;;;;;;;5040040;28;20461;-67
2021/07/05 14:20:32;;;;;;;20.10;19.00;;;;;;;;;;5042174;28;20463;-67
2021/07/05 14:22:59;;;;;;;21.00;19.70;;;;;;;;;;5041986;28;20482;-67
2021/07/05 14:25:26;;;;;;;20.80;19.70;;;;;;;;;;5034500;28;20476;-67